createdAt,value
2022-12-04T00:01:49.000Z,15.78
2022-12-04T00:04:08.000Z,17.12
2022-12-04T00:06:36.000Z,19.02
2022-12-04T00:09:00.000Z,21.77
2022-12-04T00:11:26.000Z,21.2
2022-12-04T00:13:52.000Z,20.3
2022-12-04T00:16:18.000Z,20.82
2022-12-04T00:18:44.000Z,19.12
2022-12-04T00:21:15.000Z,20.68
2022-12-04T00:23:36.000Z,21.3
2022-12-04T00:26:02.000Z,19.6
2022-12-04T00:28:27.000Z,19.45
2022-12-04T00:30:53.000Z,19.33
2022-12-04T00:33:20.000Z,18.1
2022-12-04T00:35:45.000Z,16.97
2022-12-04T00:38:11.000Z,17.8
2022-12-04T00:40:35.000Z,17.82
2022-12-04T00:43:01.000Z,17.97
2022-12-04T00:45:27.000Z,16.67
2022-12-04T00:47:52.000Z,15.78
2022-12-04T00:50:19.000Z,15.1
2022-12-04T00:52:45.000Z,14.63
2022-12-04T00:55:10.000Z,13.83
2022-12-04T00:57:36.000Z,13.5
2022-12-04T01:00:04.000Z,12.2
2022-12-04T01:02:28.000Z,14.03
2022-12-04T01:04:53.000Z,13
2022-12-04T01:07:19.000Z,13.7
2022-12-04T01:09:46.000Z,15.05
2022-12-04T01:12:11.000Z,15.65
2022-12-04T01:14:36.000Z,14
2022-12-04T01:17:03.000Z,14.83
2022-12-04T01:19:28.000Z,14.53
2022-12-04T01:21:54.000Z,15.5
2022-12-04T01:24:24.000Z,15.6
2022-12-04T01:26:46.000Z,14.93
2022-12-04T01:29:11.000Z,14.33
2022-12-04T01:31:37.000Z,14.53
2022-12-04T01:34:04.000Z,14.18
2022-12-04T01:36:30.000Z,13.72
2022-12-04T01:38:55.000Z,13.72
2022-12-04T01:41:22.000Z,15.1
2022-12-04T01:43:47.000Z,15.47
2022-12-04T01:46:13.000Z,15.58
2022-12-04T01:48:38.000Z,14
2022-12-04T01:51:04.000Z,13.2
2022-12-04T01:53:31.000Z,12.05
2022-12-04T01:55:57.000Z,12.82
2022-12-04T01:58:22.000Z,12.25
2022-12-04T02:00:48.000Z,12.67
2022-12-04T02:03:14.000Z,12.3
2022-12-04T02:05:39.000Z,12.8
2022-12-04T02:08:05.000Z,12.07
2022-12-04T02:10:31.000Z,10.72
2022-12-04T02:12:56.000Z,10.4
2022-12-04T02:15:22.000Z,10.87
2022-12-04T02:17:47.000Z,10.3
2022-12-04T02:20:17.000Z,9.95
2022-12-04T02:22:42.000Z,9.53
2022-12-04T02:25:09.000Z,9.33
2022-12-04T02:27:34.000Z,9.33
2022-12-04T02:29:59.000Z,10
2022-12-04T02:32:27.000Z,8.45
2022-12-04T02:34:51.000Z,8.2
2022-12-04T02:37:17.000Z,8.18
2022-12-04T02:39:45.000Z,8.03
2022-12-04T02:42:09.000Z,9.07
2022-12-04T02:44:36.000Z,8.4
2022-12-04T02:47:01.000Z,8
2022-12-04T02:49:29.000Z,8
2022-12-04T02:51:52.000Z,7.03
2022-12-04T02:54:19.000Z,7.33
2022-12-04T02:57:20.000Z,7.47
2022-12-04T02:59:36.000Z,6.22
2022-12-04T03:01:50.000Z,6.45
2022-12-04T03:04:01.000Z,6.4
2022-12-04T03:06:30.000Z,6.47
2022-12-04T03:11:21.000Z,6.7
2022-12-04T03:13:48.000Z,7.05
2022-12-04T03:16:13.000Z,7.5
2022-12-04T03:18:39.000Z,7.4
2022-12-04T03:21:07.000Z,7.53
2022-12-04T03:23:30.000Z,7.33
2022-12-04T03:25:56.000Z,7.5
2022-12-04T03:28:22.000Z,7.67
2022-12-04T03:30:47.000Z,8.15
2022-12-04T03:35:40.000Z,8.27
2022-12-04T03:38:05.000Z,8.13
2022-12-04T03:40:30.000Z,8.4
2022-12-04T03:42:56.000Z,7.9
2022-12-04T03:45:22.000Z,8.03
2022-12-04T03:47:48.000Z,7.9
2022-12-04T03:50:20.000Z,7.07
2022-12-04T03:52:41.000Z,7.42
2022-12-04T03:55:06.000Z,7.47
2022-12-04T03:59:58.000Z,7.67
2022-12-04T04:02:25.000Z,6.85
2022-12-04T04:04:51.000Z,6.77
2022-12-04T04:07:16.000Z,6.97
2022-12-04T04:09:43.000Z,8.75
2022-12-04T04:12:10.000Z,8.75
2022-12-04T04:14:34.000Z,9.73
2022-12-04T04:16:59.000Z,9.45
2022-12-04T04:19:26.000Z,10.17
2022-12-04T04:24:19.000Z,12.65
2022-12-04T04:26:43.000Z,12.8
2022-12-04T04:29:09.000Z,12.6
2022-12-04T04:31:34.000Z,12.8
2022-12-04T04:34:00.000Z,11.6
2022-12-04T04:36:26.000Z,14.27
2022-12-04T04:38:55.000Z,13.73
2022-12-04T04:41:20.000Z,13.8
2022-12-04T04:43:47.000Z,14.75
2022-12-04T04:46:13.000Z,15.08
2022-12-04T04:48:38.000Z,15.05
2022-12-04T04:51:04.000Z,16.1
2022-12-04T04:53:29.000Z,16.37
2022-12-04T04:55:55.000Z,15.98
2022-12-04T04:58:21.000Z,15.98
2022-12-04T05:00:54.000Z,16.2
2022-12-04T05:03:13.000Z,17.8
2022-12-04T05:05:38.000Z,18.13
2022-12-04T05:08:06.000Z,20.37
2022-12-04T05:10:31.000Z,20.05
2022-12-04T05:12:57.000Z,21.43
2022-12-04T05:15:23.000Z,18.47
2022-12-04T05:17:50.000Z,18.05
2022-12-04T05:20:17.000Z,20.17
2022-12-04T05:22:43.000Z,19.42
2022-12-04T05:25:10.000Z,18.27
2022-12-04T05:27:35.000Z,17.07
2022-12-04T05:30:00.000Z,18.9
2022-12-04T05:32:31.000Z,21
2022-12-04T05:34:52.000Z,22.23
2022-12-04T05:37:19.000Z,19.85
2022-12-04T05:39:48.000Z,20.12
2022-12-04T05:42:15.000Z,19.7
2022-12-04T05:44:40.000Z,19.27
2022-12-04T05:47:08.000Z,19.07
2022-12-04T05:49:34.000Z,18.77
2022-12-04T05:51:59.000Z,25.77
2022-12-04T05:54:24.000Z,20.23
2022-12-04T05:56:51.000Z,20.62
2022-12-04T05:59:16.000Z,22.1
2022-12-04T06:01:47.000Z,22.87
2022-12-04T06:04:13.000Z,21.43
2022-12-04T06:06:40.000Z,21.9
2022-12-04T06:09:07.000Z,22.47
2022-12-04T06:11:32.000Z,23.53
2022-12-04T06:13:58.000Z,25
2022-12-04T06:16:24.000Z,21.5
2022-12-04T06:18:51.000Z,22.85
2022-12-04T06:21:17.000Z,25.92
2022-12-04T06:23:43.000Z,22.77
2022-12-04T06:26:09.000Z,19.23
2022-12-04T06:28:34.000Z,16.2
2022-12-04T06:31:02.000Z,15.38
2022-12-04T06:33:28.000Z,15.1
2022-12-04T06:35:54.000Z,13.2
2022-12-04T06:38:21.000Z,13.3
2022-12-04T06:40:47.000Z,13.3
2022-12-04T06:43:14.000Z,13
2022-12-04T06:45:39.000Z,13.08
2022-12-04T06:48:07.000Z,13.32
2022-12-04T06:50:32.000Z,12.63
2022-12-04T06:53:04.000Z,12.5
2022-12-04T06:55:28.000Z,12.78
2022-12-04T06:57:55.000Z,12.37
2022-12-04T07:00:32.000Z,12.5
2022-12-04T07:02:46.000Z,12.6
2022-12-04T07:05:14.000Z,11.55
2022-12-04T07:07:45.000Z,11.6
2022-12-04T07:10:14.000Z,10.23
2022-12-04T07:12:46.000Z,10.93
2022-12-04T07:15:13.000Z,10.28
2022-12-04T07:17:39.000Z,10.6
2022-12-04T07:20:08.000Z,10.55
2022-12-04T07:22:34.000Z,9.95
2022-12-04T07:25:03.000Z,10.7
2022-12-04T07:27:31.000Z,11.45
2022-12-04T07:29:57.000Z,11.9
2022-12-04T07:32:24.000Z,12.97
2022-12-04T07:34:50.000Z,14.07
2022-12-04T07:37:16.000Z,14.07
2022-12-04T07:39:43.000Z,14.58
2022-12-04T07:42:10.000Z,14.33
2022-12-04T07:44:35.000Z,13.78
2022-12-04T07:47:04.000Z,13.72
2022-12-04T07:49:30.000Z,14.1
2022-12-04T07:51:55.000Z,13.4
2022-12-04T07:54:22.000Z,13.15
2022-12-04T07:56:49.000Z,12.53
2022-12-04T07:59:16.000Z,12.65
2022-12-04T08:01:54.000Z,11.95
2022-12-04T08:04:10.000Z,12.33
2022-12-04T08:06:35.000Z,11.18
2022-12-04T08:09:03.000Z,11.18
2022-12-04T08:11:31.000Z,11.28
2022-12-04T08:13:55.000Z,12
2022-12-04T08:16:22.000Z,11.5
2022-12-04T08:18:47.000Z,11.2
2022-12-04T08:21:17.000Z,11.63
2022-12-04T08:23:45.000Z,11.78
2022-12-04T08:26:17.000Z,11.22
2022-12-04T08:28:41.000Z,12.1
2022-12-04T08:31:08.000Z,11.6
2022-12-04T08:33:34.000Z,12.13
2022-12-04T08:35:59.000Z,12.4
2022-12-04T08:38:24.000Z,12.1
2022-12-04T08:40:50.000Z,11.73
2022-12-04T08:43:16.000Z,11.7
2022-12-04T08:45:42.000Z,11.93
2022-12-04T08:48:09.000Z,11.5
2022-12-04T08:50:36.000Z,11.63
2022-12-04T08:53:01.000Z,11.57
2022-12-04T08:55:30.000Z,10.98
2022-12-04T08:57:57.000Z,11.08
2022-12-04T09:00:30.000Z,11.77
2022-12-04T09:02:50.000Z,11.8
2022-12-04T09:05:16.000Z,11.83
2022-12-04T09:07:44.000Z,11.6
2022-12-04T09:10:12.000Z,11.6
2022-12-04T09:12:36.000Z,12.7
2022-12-04T09:15:01.000Z,13.22
2022-12-04T09:17:27.000Z,13.15
2022-12-04T09:19:56.000Z,12.88
2022-12-04T09:22:23.000Z,13
2022-12-04T09:24:48.000Z,12.6
2022-12-04T09:27:14.000Z,13.72
2022-12-04T09:29:40.000Z,12.9
2022-12-04T09:32:08.000Z,13.33
2022-12-04T09:34:37.000Z,13.22
2022-12-04T09:37:03.000Z,12.45
2022-12-04T09:39:32.000Z,12.8
2022-12-04T09:41:58.000Z,12.85
2022-12-04T09:44:27.000Z,13.38
2022-12-04T09:46:56.000Z,12.95
2022-12-04T09:49:24.000Z,12.25
2022-12-04T09:51:51.000Z,12.65
2022-12-04T09:54:16.000Z,12.7
2022-12-04T09:56:40.000Z,11.87
2022-12-04T09:59:06.000Z,12.95
2022-12-04T10:01:35.000Z,14.25
2022-12-04T10:04:00.000Z,14.5
2022-12-04T10:06:29.000Z,15.45
2022-12-04T10:08:55.000Z,15.9
2022-12-04T10:11:23.000Z,17.43
2022-12-04T10:13:47.000Z,18.33
2022-12-04T10:16:17.000Z,18.95
2022-12-04T10:18:44.000Z,20.17
2022-12-04T10:21:15.000Z,19.3
2022-12-04T10:23:39.000Z,19.7
2022-12-04T10:28:41.000Z,21.97
2022-12-04T10:31:09.000Z,23.15
2022-12-04T10:33:36.000Z,24.23
2022-12-04T10:36:03.000Z,25.3
2022-12-04T10:38:31.000Z,24.55
2022-12-04T10:43:26.000Z,22.98
2022-12-04T10:45:54.000Z,22.2
2022-12-04T10:48:20.000Z,22.17
2022-12-04T10:50:53.000Z,22.13
2022-12-04T10:55:48.000Z,24.3
2022-12-04T10:58:19.000Z,28.77
2022-12-04T11:00:50.000Z,29.07
2022-12-04T11:05:46.000Z,26.55
2022-12-04T11:08:14.000Z,32.15
2022-12-04T11:10:40.000Z,36.6
2022-12-04T11:13:07.000Z,50.48
2022-12-04T11:15:32.000Z,108.17
2022-12-04T11:17:57.000Z,145.05
2022-12-04T11:20:32.000Z,142.85
2022-12-04T11:22:51.000Z,100.87
2022-12-04T11:25:18.000Z,68.8
2022-12-04T11:27:44.000Z,55.67
2022-12-04T11:30:14.000Z,49.93
2022-12-04T11:32:39.000Z,45.57
2022-12-04T11:35:07.000Z,45.17
2022-12-04T11:37:33.000Z,81.13
2022-12-04T11:42:31.000Z,74.65
2022-12-04T11:45:01.000Z,64.9
2022-12-04T11:47:27.000Z,62.03
2022-12-04T11:49:57.000Z,56.73
2022-12-04T11:54:54.000Z,50.65
2022-12-04T11:57:26.000Z,43.13
2022-12-04T11:59:53.000Z,43.65
2022-12-04T12:02:31.000Z,37.93
2022-12-04T12:07:20.000Z,38.35
2022-12-04T12:09:53.000Z,36.3
2022-12-04T12:12:32.000Z,33.75
2022-12-04T12:15:02.000Z,31.35
2022-12-04T12:17:29.000Z,30.97
2022-12-04T12:19:52.000Z,29.77
2022-12-04T12:22:23.000Z,29.2
2022-12-04T12:24:51.000Z,26.2
2022-12-04T12:27:20.000Z,25.48
2022-12-04T12:29:45.000Z,24.8
2022-12-04T12:32:12.000Z,25.05
2022-12-04T12:34:39.000Z,24.85
2022-12-04T12:37:09.000Z,24.4
2022-12-04T12:39:38.000Z,24.18
2022-12-04T12:42:02.000Z,22.93
2022-12-04T12:47:03.000Z,22.3
2022-12-04T12:54:43.000Z,21.53
2022-12-04T12:57:06.000Z,20.97
2022-12-04T12:59:34.000Z,21.48
2022-12-04T13:02:27.000Z,21.35
2022-12-04T13:07:03.000Z,21.4
2022-12-04T13:09:30.000Z,21.33
2022-12-04T13:11:57.000Z,21.33
2022-12-04T13:14:33.000Z,21.47
2022-12-04T13:17:12.000Z,20.12
2022-12-04T13:19:41.000Z,20.1
2022-12-04T13:22:09.000Z,17.62
2022-12-04T13:27:11.000Z,15.88
2022-12-04T13:29:36.000Z,15.13
2022-12-04T13:32:04.000Z,16
2022-12-04T13:34:33.000Z,14.85
2022-12-04T13:39:33.000Z,13.4
2022-12-04T13:42:09.000Z,12.93
2022-12-04T13:44:34.000Z,13.05
2022-12-04T13:49:29.000Z,12.07
2022-12-04T13:51:58.000Z,10.65
2022-12-04T13:54:24.000Z,10.38
2022-12-04T13:59:27.000Z,10.5
2022-12-04T14:04:26.000Z,10.7
2022-12-04T14:06:56.000Z,10.65
2022-12-04T14:11:55.000Z,10.58
2022-12-04T14:14:23.000Z,10.6
2022-12-04T14:19:32.000Z,10.03
2022-12-04T14:21:57.000Z,10.75
2022-12-04T14:24:27.000Z,10.85
2022-12-04T14:26:55.000Z,11.27
2022-12-04T14:29:23.000Z,11.33
2022-12-04T14:34:26.000Z,12.05
2022-12-04T14:36:49.000Z,12.58
2022-12-04T14:39:13.000Z,12.88
2022-12-04T14:41:38.000Z,13.53
2022-12-04T14:44:10.000Z,14.43
2022-12-04T14:46:35.000Z,15.18
2022-12-04T14:48:58.000Z,16.1
2022-12-04T14:51:26.000Z,15.53
2022-12-04T14:53:52.000Z,16.8
2022-12-04T14:56:21.000Z,16.57
2022-12-04T14:58:45.000Z,16.9
2022-12-04T15:01:28.000Z,17
2022-12-04T15:03:36.000Z,17.12
2022-12-04T15:06:03.000Z,16.67
2022-12-04T15:08:29.000Z,17.12
2022-12-04T15:10:55.000Z,17.6
2022-12-04T15:13:21.000Z,17.77
2022-12-04T15:15:51.000Z,16.93
2022-12-04T15:18:15.000Z,17.95
2022-12-04T15:20:39.000Z,18.43
2022-12-04T15:23:06.000Z,20.13
2022-12-04T15:25:35.000Z,21.5
2022-12-04T15:27:59.000Z,21.1
2022-12-04T15:30:27.000Z,22.4
2022-12-04T15:32:54.000Z,24.1
2022-12-04T15:35:20.000Z,25.97
2022-12-04T15:37:47.000Z,25.02
2022-12-04T15:46:52.000Z,27.22
2022-12-04T15:49:14.000Z,27.85
2022-12-04T15:51:40.000Z,28.77
2022-12-04T15:54:09.000Z,29.07
2022-12-04T15:56:33.000Z,28.57
2022-12-04T15:58:57.000Z,28.42
2022-12-04T16:01:27.000Z,29.73
2022-12-04T16:03:48.000Z,29.43
2022-12-04T16:06:15.000Z,29.12
2022-12-04T16:08:41.000Z,28.8
2022-12-04T16:11:12.000Z,29.48
2022-12-04T16:13:32.000Z,28.85
2022-12-04T16:15:58.000Z,30.27
2022-12-04T16:18:24.000Z,30.4
2022-12-04T16:20:49.000Z,29.73
2022-12-04T16:23:16.000Z,30.25
2022-12-04T16:25:41.000Z,30.32
2022-12-04T16:28:07.000Z,29.15
2022-12-04T16:30:33.000Z,28.15
2022-12-04T16:32:58.000Z,28.9
2022-12-04T16:42:11.000Z,26.9
2022-12-04T16:44:35.000Z,26.02
2022-12-04T16:47:01.000Z,25.92
2022-12-04T16:49:19.000Z,25.92
2022-12-04T16:51:44.000Z,25.68
2022-12-04T16:54:11.000Z,24.63
2022-12-04T16:57:03.000Z,24.98
2022-12-04T16:59:18.000Z,25.83
2022-12-04T17:01:35.000Z,25.43
2022-12-04T17:03:53.000Z,25.7
2022-12-04T17:06:20.000Z,25.3
2022-12-04T17:08:45.000Z,24.18
2022-12-04T17:11:16.000Z,24.57
2022-12-04T17:13:37.000Z,25.7
2022-12-04T17:16:04.000Z,25.48
2022-12-04T17:18:28.000Z,26.07
2022-12-04T17:20:54.000Z,24.45
2022-12-04T17:23:25.000Z,23.57
2022-12-04T17:25:46.000Z,23.83
2022-12-04T17:28:12.000Z,23.07
2022-12-04T17:30:37.000Z,22.27
2022-12-04T17:33:03.000Z,22.98
2022-12-04T17:35:30.000Z,23.65
2022-12-04T17:37:55.000Z,22.5
2022-12-04T17:40:21.000Z,21.97
2022-12-04T17:42:47.000Z,23.77
2022-12-04T17:45:14.000Z,23.6
2022-12-04T17:47:39.000Z,23.1
2022-12-04T17:50:19.000Z,23.22
2022-12-04T17:52:43.000Z,25.82
2022-12-04T17:54:56.000Z,23.7
2022-12-04T17:57:22.000Z,22.98
2022-12-04T17:59:48.000Z,21.5
2022-12-04T18:02:14.000Z,22.1
2022-12-04T18:04:39.000Z,20.63
2022-12-04T18:07:06.000Z,20.03
2022-12-04T18:09:31.000Z,19.17
2022-12-04T18:11:56.000Z,18.9
2022-12-04T18:14:24.000Z,18.45
2022-12-04T18:16:48.000Z,17.85
2022-12-04T18:19:15.000Z,18.17
2022-12-04T18:21:40.000Z,17.87
2022-12-04T18:24:11.000Z,17.9
2022-12-04T18:26:49.000Z,17.47
2022-12-04T18:28:57.000Z,17.23
2022-12-04T18:31:25.000Z,17.4
2022-12-04T18:33:49.000Z,17.92
2022-12-04T18:36:15.000Z,17.5
2022-12-04T18:38:40.000Z,17.35
2022-12-04T18:41:07.000Z,17.27
2022-12-04T18:43:33.000Z,18.05
2022-12-04T18:46:13.000Z,17.6
2022-12-04T18:48:28.000Z,18.3
2022-12-04T18:50:50.000Z,18.15
2022-12-04T18:53:15.000Z,18.37
2022-12-04T18:55:41.000Z,19.73
2022-12-04T18:58:07.000Z,20.17
2022-12-04T19:00:37.000Z,20.53
2022-12-04T19:02:59.000Z,20.53
2022-12-04T19:05:26.000Z,20.68
2022-12-04T19:07:51.000Z,20.35
2022-12-04T19:10:16.000Z,19.87
2022-12-04T19:12:42.000Z,20.1
2022-12-04T19:15:11.000Z,20.27
2022-12-04T19:17:33.000Z,20.97
2022-12-04T19:20:00.000Z,20.83
2022-12-04T19:22:24.000Z,21.53
2022-12-04T19:24:55.000Z,20.55
2022-12-04T19:27:17.000Z,20.83
2022-12-04T19:29:42.000Z,21.13
2022-12-04T19:32:08.000Z,21.27
2022-12-04T19:34:34.000Z,22.17
2022-12-04T19:37:00.000Z,22.75
2022-12-04T19:39:26.000Z,23.32
2022-12-04T19:41:52.000Z,23.22
2022-12-04T19:46:46.000Z,23.67
2022-12-04T19:49:12.000Z,23.15
2022-12-04T19:51:37.000Z,23.45
2022-12-04T19:54:06.000Z,23.52
2022-12-04T19:56:30.000Z,23.55
2022-12-04T19:58:55.000Z,22.22
2022-12-04T20:01:22.000Z,22.37
2022-12-04T20:03:47.000Z,21.25
2022-12-04T20:06:13.000Z,20.92
2022-12-04T20:08:39.000Z,20.32
2022-12-04T20:11:06.000Z,19.33
2022-12-04T20:13:31.000Z,17.8
2022-12-04T20:15:56.000Z,17.62
2022-12-04T20:18:22.000Z,16.25
2022-12-04T20:20:52.000Z,15.5
2022-12-04T20:23:21.000Z,15.1
2022-12-04T20:25:53.000Z,14.8
2022-12-04T20:28:07.000Z,13.83
2022-12-04T20:30:32.000Z,14
2022-12-04T20:32:58.000Z,12.2
2022-12-04T20:35:25.000Z,11.57
2022-12-04T20:37:49.000Z,11.7
2022-12-04T20:40:19.000Z,11.2
2022-12-04T20:42:41.000Z,10.25
2022-12-04T20:45:08.000Z,10.95
2022-12-04T20:47:32.000Z,10.67
2022-12-04T20:49:58.000Z,10
2022-12-04T20:52:24.000Z,9.77
2022-12-04T20:54:49.000Z,10.47
2022-12-04T20:57:18.000Z,11.08
2022-12-04T20:59:44.000Z,10.58
2022-12-04T21:02:07.000Z,10.9
2022-12-04T21:04:33.000Z,10.35
2022-12-04T21:06:59.000Z,10.08
2022-12-04T21:09:26.000Z,10.88
2022-12-04T21:11:52.000Z,11.45
2022-12-04T21:14:17.000Z,11.65
2022-12-04T21:16:43.000Z,11.6
2022-12-04T21:19:08.000Z,12.3
2022-12-04T21:21:35.000Z,11.97
2022-12-04T21:24:00.000Z,12.5
2022-12-04T21:26:35.000Z,13.2
2022-12-04T21:28:52.000Z,14.27
2022-12-04T21:31:17.000Z,14.7
2022-12-04T21:33:43.000Z,16.55
2022-12-04T21:36:09.000Z,16.15
2022-12-04T21:38:34.000Z,16.5
2022-12-04T21:41:00.000Z,16.1
2022-12-04T21:43:27.000Z,17.35
2022-12-04T21:45:52.000Z,16.33
2022-12-04T21:48:19.000Z,16.9
2022-12-04T21:50:57.000Z,17.4
2022-12-04T21:53:18.000Z,17.07
2022-12-04T21:55:37.000Z,17.87
2022-12-04T21:58:01.000Z,17.4
2022-12-04T22:00:36.000Z,17.77
2022-12-04T22:02:54.000Z,16.9
2022-12-04T22:05:20.000Z,17.23
2022-12-04T22:07:45.000Z,17.05
2022-12-04T22:10:14.000Z,17.77
2022-12-04T22:12:37.000Z,17.48
2022-12-04T22:15:09.000Z,17.3
2022-12-04T22:17:28.000Z,17.53
2022-12-04T22:19:55.000Z,17.1
2022-12-04T22:22:21.000Z,17.35
2022-12-04T22:24:47.000Z,17.03
2022-12-04T22:27:12.000Z,17
2022-12-04T22:29:38.000Z,17.32
2022-12-04T22:32:05.000Z,17.02
2022-12-04T22:34:30.000Z,16.95
2022-12-04T22:36:55.000Z,17.2
2022-12-04T22:39:22.000Z,16.9
2022-12-04T22:41:48.000Z,17
2022-12-04T22:44:16.000Z,16.75
2022-12-04T22:46:40.000Z,16.6
2022-12-04T22:49:07.000Z,17.42
2022-12-04T22:51:31.000Z,17.45
2022-12-04T22:53:58.000Z,17
2022-12-04T22:56:24.000Z,16.47
2022-12-04T22:58:49.000Z,17.1
2022-12-04T23:01:48.000Z,17.73
2022-12-04T23:03:54.000Z,17.98
2022-12-04T23:06:09.000Z,18.92
2022-12-04T23:08:33.000Z,18.87
2022-12-04T23:10:58.000Z,18.25
2022-12-04T23:13:24.000Z,18.42
2022-12-04T23:15:51.000Z,19.02
2022-12-04T23:18:29.000Z,18.1
2022-12-04T23:20:43.000Z,18.47
2022-12-04T23:23:09.000Z,18.07
2022-12-04T23:25:33.000Z,18.62
2022-12-04T23:28:00.000Z,17.82
2022-12-04T23:30:29.000Z,17.17
2022-12-04T23:32:52.000Z,16.65
2022-12-04T23:35:18.000Z,16.73
2022-12-04T23:37:43.000Z,17.05
2022-12-04T23:40:15.000Z,16.2
2022-12-04T23:42:48.000Z,16.4
2022-12-04T23:45:00.000Z,17.37
2022-12-04T23:47:26.000Z,18
2022-12-04T23:49:52.000Z,17.55
2022-12-04T23:52:18.000Z,17.23
2022-12-04T23:54:45.000Z,18.02
2022-12-04T23:57:09.000Z,18.37
2022-12-04T23:59:35.000Z,18.67
